セントジョンズ の空港の天気 - METARとTAF

セント・ジョンズ国際空港 ( CYYT / YYT ) - カナダ ニューファンドランド・ラブラドール州セントジョンズ
飛行場実況気象(Metar)
観測時間05/29 14:30 NDT (05/29 17:00 UTC)
風向・風速西 8m/s 瞬間風速13m/s
視程10km以上
天気現象
全天の4割程度の雲 雲底高度 3960m
全天の8割程度の雲 雲底高度 6710m
気温26℃
湿度54%
気圧1012.6hPa
METARCYYT 291700Z 28016G25KT 15SM SCT130 BKN220 26/16 A2990 RMK AC4CI2 SLP126 DENSITY ALT 1900FT
過去の天気等 Google飛行場航空写真 Wunderground天気予報

過去48時間のMETAR

飛行場予報(TAF)
発表時間: 5/29 09:00 NDT (5/29 11:30 UTC)
予報対象時間: 29日9時 NDT ~ 30日9時 NDT
風向・風速南 4m/s
視程10km以上
全天の8割程度の雲 雲底高度 3960m
29日9時 NDT から 確率 30% で
視程1610m
天気現象もや
全天を覆う雲 雲底高度 240m
29日10時 NDT から
風向・風速西南西 6m/s
視程10km以上
全天の4割程度の雲 雲底高度 460m
全天の4割程度の雲 雲底高度 1830m
29日10時 NDT ~ 29日15時 NDT に一時的に
全天の8割程度の雲 雲底高度 460m
29日11時 NDT ~ 29日13時 NDT に徐々に
風向・風速西南西 8m/s 瞬間風速 13m/s
29日15時 NDT から
風向・風速西南西 8m/s 瞬間風速 13m/s
視程10km以上
少しの雲 雲底高度 610m
全天の4割程度の雲 雲底高度 7320m
29日15時 NDT ~ 30日24時 NDT に一時的に
全天の8割程度の雲 雲底高度 610m
30日0時 NDT から
風向・風速西南西 9m/s 瞬間風速 14m/s
視程10km以上
全天の8割程度の雲 雲底高度 240m
全天を覆う雲 雲底高度 610m
TAF CYYT 291130Z 2912/3012 18008KT P6SM BKN130
PROB30 2912/2913 1SM BR OVC008
FM291300 25012KT P6SM SCT015 SCT060
TEMPO 2913/2918 BKN015
BECMG 2914/2916 25015G25KT
FM291800 25015G25KT P6SM FEW020 SCT240
TEMPO 2918/3003 BKN020
FM300300 24018G28KT P6SM BKN008 OVC020 RMK NXT FCST BY 291800Z